Time;durP1;ratioP1;P1;durP2;ratioP2;P2;SDS_P1;SDS_P2;PMS_P1;PMS_P2;Temp;Humidity;BMP_temperature;BMP_pressure;BME280_temperature;BME280_humidity;BME280_pressure;Samples;Min_cycle;Max_cycle;Signal;HPM_P1;HPM_P2
2023/10/16 00:01:19;;;;;;;7.53;3.80;;;4.30;99.90;;;;;;4886683;29;20062;-78
2023/10/16 00:03:47;;;;;;;7.63;3.92;;;4.30;99.90;;;;;;4887033;29;20296;-77
2023/10/16 00:06:16;;;;;;;7.30;3.65;;;4.30;99.90;;;;;;4886969;29;20327;-77
2023/10/16 00:09:10;;;;;;;8.13;3.58;;;4.20;99.90;;;;;;4887961;29;20226;-76
2023/10/16 00:11:37;;;;;;;7.32;3.47;;;4.20;99.90;;;;;;4872296;29;20418;-76
2023/10/16 00:14:14;;;;;;;6.05;3.60;;;4.20;99.90;;;;;;4872024;29;20030;-76
2023/10/16 00:16:44;;;;;;;6.47;3.50;;;4.20;99.90;;;;;;4856301;29;20040;-77
2023/10/16 00:19:13;;;;;;;6.13;3.55;;;4.20;99.90;;;;;;4871453;29;20029;-78
2023/10/16 00:21:45;;;;;;;9.15;4.40;;;4.10;99.90;;;;;;4886559;29;20335;-77
2023/10/16 00:24:18;;;;;;;6.38;4.07;;;4.10;99.90;;;;;;4887139;29;20040;-76
2023/10/16 00:26:50;;;;;;;6.13;3.72;;;4.20;99.90;;;;;;4872065;29;20338;-77
2023/10/16 00:29:35;;;;;;;7.63;3.90;;;4.20;99.90;;;;;;4871960;29;20049;-77
2023/10/16 06:15:46;;;;;;;15.48;7.30;;;2.80;99.90;;;;;;4903044;29;20024;-77
2023/10/16 06:23:10;;;;;;;13.88;7.32;;;2.90;99.90;;;;;;4856994;29;20370;-79
2023/10/16 06:26:27;;;;;;;11.60;6.72;;;3.00;99.90;;;;;;4882751;29;20086;-78
2023/10/16 06:32:21;;;;;;;13.10;6.20;;;3.20;99.90;;;;;;4848602;29;20102;-78
2023/10/16 06:35:09;;;;;;;11.10;6.30;;;3.30;99.90;;;;;;4834414;29;20030;-77
2023/10/16 06:37:38;;;;;;;;;;;3.50;99.90;;;;;;4831090;29;20046;-79
2023/10/16 06:41:17;;;;;;;11.50;6.00;;;3.50;99.90;;;;;;4823070;29;19916;-78
2023/10/16 06:44:01;;;;;;;14.95;7.22;;;3.60;99.90;;;;;;4818884;29;20105;-78
2023/10/16 06:47:12;;;;;;;12.93;5.72;;;3.70;99.90;;;;;;4834268;29;20131;-78
2023/10/16 06:49:56;;;;;;;12.43;5.97;;;3.70;99.90;;;;;;4815408;29;20097;-78
2023/10/16 06:52:22;;;;;;;11.93;5.72;;;3.80;99.90;;;;;;4816316;29;20042;-79
2023/10/16 06:54:48;;;;;;;11.20;5.28;;;3.90;99.90;;;;;;4817121;29;20067;-79
2023/10/16 07:00:57;;;;;;;8.20;4.93;;;4.10;99.90;;;;;;4797694;30;20035;-80
2023/10/16 07:03:33;;;;;;;9.48;4.80;;;4.30;99.90;;;;;;4800968;29;20043;-79
2023/10/16 07:06:05;;;;;;;9.88;4.53;;;4.40;99.90;;;;;;4811078;29;20046;-79
2023/10/16 07:09:05;;;;;;;7.55;4.57;;;4.60;99.90;;;;;;4834681;29;20135;-79
2023/10/16 07:11:31;;;;;;;7.07;4.22;;;4.70;99.90;;;;;;4851356;29;20080;-78
2023/10/16 07:16:59;;;;;;;13.38;4.85;;;4.90;99.90;;;;;;4928252;29;20028;-76
2023/10/16 07:19:25;;;;;;;11.55;4.65;;;5.00;99.90;;;;;;4929101;29;20056;-76
2023/10/16 07:21:51;;;;;;;8.05;4.28;;;5.10;99.90;;;;;;4896926;29;20020;-76
2023/10/16 07:24:17;;;;;;;15.98;4.82;;;5.20;99.90;;;;;;4896075;29;20076;-79
2023/10/16 07:26:49;;;;;;;14.20;5.13;;;5.30;99.90;;;;;;4893921;29;20043;-78
2023/10/16 07:29:15;;;;;;;11.90;4.70;;;5.30;99.90;;;;;;4894169;29;20042;-78
2023/10/16 07:31:44;;;;;;;9.63;4.68;;;5.40;99.90;;;;;;4910058;29;20087;-79
2023/10/16 07:34:11;;;;;;;10.50;4.22;;;5.50;99.90;;;;;;4896528;29;20112;-78
2023/10/16 07:36:45;;;;;;;8.35;4.57;;;5.50;99.90;;;;;;4895859;29;20087;-77
2023/10/16 07:39:15;;;;;;;8.60;4.45;;;5.50;99.90;;;;;;4896464;29;20250;-78
2023/10/16 07:41:43;;;;;;;8.30;4.47;;;5.50;99.90;;;;;;4895540;29;20270;-78
2023/10/16 07:44:09;;;;;;;10.10;4.40;;;5.50;99.90;;;;;;4928972;29;20318;-77
2023/10/16 07:46:39;;;;;;;9.00;4.90;;;5.50;99.90;;;;;;4911859;29;20032;-77
2023/10/16 07:49:09;;;;;;;7.50;4.00;;;5.50;99.90;;;;;;4896747;29;20099;-77
2023/10/16 07:51:37;;;;;;;8.43;4.63;;;5.60;99.90;;;;;;4896367;29;20027;-78
2023/10/16 07:54:07;;;;;;;11.37;5.33;;;5.60;99.90;;;;;;4896561;29;20028;-79
2023/10/16 07:56:38;;;;;;;12.45;5.13;;;5.70;99.90;;;;;;4892798;29;20381;-77
2023/10/16 07:59:18;;;;;;;12.57;5.25;;;5.80;99.90;;;;;;4910161;29;20063;-77
2023/10/16 08:01:57;;;;;;;10.90;4.97;;;5.80;99.90;;;;;;4894927;29;20029;-78
2023/10/16 08:06:52;;;;;;;9.63;4.72;;;5.90;99.90;;;;;;4901903;29;20040;-77
2023/10/16 08:11:57;;;;;;;11.52;4.68;;;6.00;99.90;;;;;;4892084;29;20032;-77
2023/10/16 08:14:32;;;;;;;13.48;5.20;;;6.10;99.90;;;;;;4909195;29;20029;-77
2023/10/16 08:17:04;;;;;;;11.02;5.35;;;6.20;99.90;;;;;;4876981;29;20032;-78
2023/10/16 08:19:36;;;;;;;8.60;4.80;;;6.30;99.90;;;;;;4906046;29;20040;-78
2023/10/16 08:22:03;;;;;;;9.00;4.75;;;6.50;99.90;;;;;;4895056;29;20031;-77
2023/10/16 08:24:30;;;;;;;9.30;4.88;;;6.70;99.90;;;;;;4895181;29;20028;-77
2023/10/16 08:29:58;;;;;;;10.32;4.80;;;6.90;99.90;;;;;;4903417;29;20036;-79
2023/10/16 08:32:53;;;;;;;9.85;4.72;;;7.10;99.90;;;;;;4895411;29;20098;-77
2023/10/16 08:35:23;;;;;;;10.05;5.10;;;7.30;99.90;;;;;;4895403;29;20190;-78
2023/10/16 08:37:58;;;;;;;10.02;5.00;;;7.50;99.90;;;;;;4894626;29;20032;-77
2023/10/16 08:40:34;;;;;;;9.27;4.95;;;7.60;99.90;;;;;;4909989;29;20032;-77
2023/10/16 08:43:07;;;;;;;11.15;4.88;;;7.80;99.90;;;;;;4893663;29;20035;-78
2023/10/16 08:45:39;;;;;;;10.10;4.50;;;7.90;99.90;;;;;;4895258;29;20055;-77
2023/10/16 08:48:07;;;;;;;8.88;5.22;;;8.00;99.40;;;;;;4894749;29;20103;-76
2023/10/16 08:50:49;;;;;;;8.95;4.53;;;8.10;99.60;;;;;;4895356;29;20028;-79
2023/10/16 08:53:32;;;;;;;8.15;4.38;;;8.10;99.00;;;;;;4895507;29;20051;-78
2023/10/16 08:56:09;;;;;;;11.35;5.47;;;8.30;98.60;;;;;;4895309;29;20039;-78
2023/10/16 08:58:41;;;;;;;11.40;4.85;;;8.50;98.20;;;;;;4890453;29;20052;-77
2023/10/16 09:01:21;;;;;;;13.32;5.47;;;8.50;97.80;;;;;;4893003;29;20032;-77
2023/10/16 09:03:59;;;;;;;9.98;4.65;;;8.60;97.50;;;;;;4890819;29;20056;-77
2023/10/16 09:06:26;;;;;;;10.00;4.82;;;8.70;97.50;;;;;;4878113;29;20028;-77
2023/10/16 09:08:55;;;;;;;8.13;4.53;;;8.80;97.10;;;;;;4876637;29;20387;-77
2023/10/16 09:11:22;;;;;;;10.25;4.90;;;8.90;96.80;;;;;;4891570;29;20037;-76
2023/10/16 09:13:52;;;;;;;7.25;4.28;;;8.90;96.50;;;;;;4910919;29;20016;-77
2023/10/16 09:16:26;;;;;;;9.07;4.53;;;9.00;96.40;;;;;;4891578;29;20039;-75
2023/10/16 09:19:02;;;;;;;10.35;4.63;;;9.10;96.20;;;;;;4890573;29;20352;-78
2023/10/16 09:21:30;;;;;;;8.38;4.40;;;9.20;95.40;;;;;;4875804;29;20035;-77
2023/10/16 09:24:00;;;;;;;7.97;3.95;;;9.10;95.50;;;;;;4875470;29;20028;-76
2023/10/16 09:26:32;;;;;;;8.70;4.20;;;9.10;95.50;;;;;;4875865;29;20051;-77
2023/10/16 09:29:13;;;;;;;11.90;4.65;;;9.20;95.40;;;;;;4875420;29;20218;-76
2023/10/16 09:31:46;;;;;;;8.40;4.18;;;9.30;95.40;;;;;;4896227;29;20214;-77
2023/10/16 09:34:17;;;;;;;8.60;4.10;;;9.40;95.20;;;;;;4875371;29;20035;-77
2023/10/16 09:37:36;;;;;;;7.25;4.00;;;9.40;95.20;;;;;;4875532;29;20033;-75
2023/10/16 09:39:46;;;;;;;7.40;4.07;;;9.40;94.90;;;;;;4890770;29;20059;-77
2023/10/16 09:42:13;;;;;;;7.18;3.65;;;9.50;94.80;;;;;;4875987;29;20233;-76
2023/10/16 09:44:41;;;;;;;7.13;3.60;;;9.60;94.50;;;;;;4880275;29;20028;-74
2023/10/16 09:47:25;;;;;;;7.13;4.07;;;9.70;94.50;;;;;;4915064;29;20060;-78
2023/10/16 09:50:00;;;;;;;6.45;4.13;;;9.70;94.70;;;;;;4904594;29;20092;-76
2023/10/16 09:52:32;;;;;;;6.43;3.88;;;9.90;94.50;;;;;;4903488;29;20104;-76
2023/10/16 09:55:05;;;;;;;6.38;3.53;;;10.00;94.10;;;;;;4900194;29;20029;-80
2023/10/16 09:57:54;;;;;;;6.35;3.65;;;10.00;93.80;;;;;;4883298;29;20076;-76
2023/10/16 10:03:26;;;;;;;7.47;3.70;;;10.20;93.30;;;;;;4913216;29;20028;-78
2023/10/16 10:06:07;;;;;;;9.32;3.60;;;10.10;93.40;;;;;;4911023;29;20043;-75
2023/10/16 10:12:13;;;;;;;4.18;2.45;;;10.30;93.20;;;;;;4891034;29;20041;-78
2023/10/16 10:14:49;;;;;;;4.78;2.50;;;10.50;92.90;;;;;;4913988;29;20080;-76
2023/10/16 10:17:25;;;;;;;6.07;2.63;;;10.50;92.50;;;;;;4857710;29;20037;-76
2023/10/16 10:20:07;;;;;;;4.85;2.05;;;10.50;92.50;;;;;;4842432;29;20315;-76
2023/10/16 10:25:35;;;;;;;6.15;2.53;;;10.80;92.20;;;;;;4836046;29;20046;-75
2023/10/16 10:28:10;;;;;;;4.78;2.13;;;11.00;91.50;;;;;;4837942;29;20048;-76
2023/10/16 10:30:43;;;;;;;3.72;1.70;;;11.30;90.30;;;;;;4823955;29;20037;-76
2023/10/16 10:33:37;;;;;;;6.30;1.85;;;11.30;90.20;;;;;;4837516;29;20347;-74
2023/10/16 10:36:29;;;;;;;3.20;1.58;;;11.50;89.50;;;;;;4839090;29;20053;-77
2023/10/16 10:39:38;;;;;;;4.05;1.65;;;11.70;88.40;;;;;;4855966;29;20422;-77
2023/10/16 10:45:46;;;;;;;2.97;1.38;;;12.60;86.60;;;;;;4852909;29;20046;-78
2023/10/16 10:51:13;;;;;;;1.90;0.77;;;13.40;80.80;;;;;;4856424;29;20475;-78
2023/10/16 10:54:06;;;;;;;4.13;0.90;;;14.00;78.80;;;;;;4845486;29;20029;-78
2023/10/16 10:56:49;;;;;;;3.33;0.75;;;14.40;73.80;;;;;;4901668;29;20322;-77
2023/10/16 11:03:16;;;;;;;5.38;1.77;;;15.10;72.70;;;;;;4910159;29;20035;-78
2023/10/16 11:05:45;;;;;;;3.53;0.80;;;16.10;70.70;;;;;;4893979;29;20032;-77
2023/10/16 11:08:39;;;;;;;2.35;0.82;;;16.70;66.10;;;;;;4896548;29;20067;-76
2023/10/16 11:11:17;;;;;;;2.92;1.13;;;17.30;65.00;;;;;;4882671;29;20266;-78
2023/10/16 11:14:16;;;;;;;3.33;1.33;;;18.00;64.70;;;;;;4896555;29;20063;-77
2023/10/16 11:17:39;;;;;;;4.00;0.82;;;18.90;64.80;;;;;;4912150;29;20036;-77
2023/10/16 11:20:29;;;;;;;2.95;0.60;;;19.00;60.10;;;;;;4866435;29;20057;-80
2023/10/16 11:30:00;;;;;;;3.90;0.82;;;19.60;57.20;;;;;;4870251;29;20391;-76
2023/10/16 11:33:21;;;;;;;2.95;0.70;;;19.90;56.70;;;;;;4832780;29;20045;-80
2023/10/16 11:36:30;;;;;;;3.88;0.80;;;20.10;56.70;;;;;;4816788;29;20042;-77
2023/10/16 11:39:35;;;;;;;2.58;0.80;;;20.40;55.70;;;;;;4817820;29;20071;-76
2023/10/16 11:42:04;;;;;;;2.47;0.60;;;20.40;55.90;;;;;;4837729;29;20231;-76
2023/10/16 11:44:32;;;;;;;2.47;0.65;;;20.50;55.70;;;;;;4852006;29;20332;-80
2023/10/16 11:47:36;;;;;;;1.80;0.55;;;20.30;56.30;;;;;;4833488;29;20346;-78
2023/10/16 11:50:28;;;;;;;6.13;0.80;;;20.60;56.00;;;;;;4816549;29;20047;-79
2023/10/16 11:56:34;;;;;;;2.40;0.77;;;22.20;54.40;;;;;;4868963;29;20044;-78
2023/10/16 11:59:41;;;;;;;6.32;1.13;;;22.70;53.60;;;;;;4884770;29;20257;-77
2023/10/16 12:05:37;;;;;;;5.90;0.85;;;23.00;51.70;;;;;;4888457;29;20032;-79
2023/10/16 12:08:07;;;;;;;2.45;0.68;;;22.60;52.40;;;;;;4889803;29;20294;-78
2023/10/16 12:10:50;;;;;;;3.20;1.00;;;21.60;53.40;;;;;;4905444;29;20092;-78
2023/10/16 12:13:47;;;;;;;1.90;0.60;;;22.00;54.50;;;;;;4870009;29;20353;-80
2023/10/16 12:16:24;;;;;;;3.00;0.80;;;22.50;53.50;;;;;;4868900;29;20089;-81
2023/10/16 12:19:18;;;;;;;2.88;0.90;;;23.20;52.80;;;;;;4868875;29;20118;-79
2023/10/16 12:21:52;;;;;;;1.45;0.70;;;23.60;51.80;;;;;;4888315;29;20047;-79
2023/10/16 12:24:22;;;;;;;2.97;0.80;;;23.50;51.70;;;;;;4888554;29;20043;-81
2023/10/16 12:32:59;;;;;;;6.75;1.05;;;24.20;50.40;;;;;;4869857;29;20032;-80
2023/10/16 12:35:26;;;;;;;5.35;1.05;;;24.70;50.20;;;;;;4874290;29;20104;-79
2023/10/16 12:38:07;;;;;;;3.53;0.80;;;24.60;49.80;;;;;;4856475;29;20330;-80
2023/10/16 12:40:37;;;;;;;2.30;0.75;;;25.10;49.60;;;;;;4872601;29;20390;-80
2023/10/16 12:43:29;;;;;;;1.58;0.52;;;25.30;48.30;;;;;;4872135;29;20106;-80
2023/10/16 12:46:15;;;;;;;3.08;0.73;;;25.20;48.40;;;;;;4890798;29;20314;-79
2023/10/16 12:48:44;;;;;;;1.95;0.60;;;25.10;49.30;;;;;;4885668;29;20125;-80
2023/10/16 12:51:50;;;;;;;2.45;0.77;;;25.30;48.70;;;;;;4850865;29;20192;-78
2023/10/16 12:54:16;;;;;;;2.58;0.68;;;26.20;48.80;;;;;;4855053;29;20057;-79
2023/10/16 12:57:06;;;;;;;3.40;0.82;;;25.70;47.50;;;;;;4894495;29;20031;-80
2023/10/16 12:59:32;;;;;;;1.80;0.52;;;24.80;48.10;;;;;;4909353;29;20045;-80
2023/10/16 13:01:59;;;;;;;2.45;0.90;;;24.80;49.20;;;;;;4901256;29;20035;-81
2023/10/16 13:05:01;;;;;;;2.95;0.60;;;25.30;47.70;;;;;;4891008;29;20330;-79
2023/10/16 13:07:27;;;;;;;2.33;0.70;;;26.00;48.60;;;;;;4906164;29;20042;-80
2023/10/16 13:10:40;;;;;;;5.68;0.80;;;26.50;46.30;;;;;;4906615;29;20103;-78
2023/10/16 13:13:09;;;;;;;4.18;1.27;;;26.70;46.20;;;;;;4831741;29;20050;-80
2023/10/16 13:16:24;;;;;;;2.55;0.50;;;26.70;45.60;;;;;;4816564;29;20322;-78
2023/10/16 13:19:01;;;;;;;3.10;0.60;;;26.40;46.10;;;;;;4832321;29;20217;-80
2023/10/16 13:21:33;;;;;;;3.88;0.60;;;26.20;45.00;;;;;;4813444;29;20043;-79
2023/10/16 13:24:20;;;;;;;2.20;0.50;;;26.40;45.40;;;;;;4813307;29;20063;-78
2023/10/16 13:26:52;;;;;;;4.50;0.98;;;26.80;45.30;;;;;;4814044;29;20031;-80
2023/10/16 13:29:19;;;;;;;2.08;0.70;;;26.70;44.90;;;;;;4799132;29;20250;-79
2023/10/16 13:31:46;;;;;;;3.42;0.60;;;26.10;46.30;;;;;;4811511;29;20090;-77
2023/10/16 13:34:32;;;;;;;33.40;3.63;;;26.50;45.70;;;;;;4813585;29;20202;-78
2023/10/16 13:37:18;;;;;;;45.20;5.68;;;26.90;45.50;;;;;;4811678;29;20204;-77
2023/10/16 13:39:53;;;;;;;60.28;6.13;;;26.60;44.90;;;;;;4817240;29;20083;-79
2023/10/16 13:42:20;;;;;;;5.75;0.93;;;26.50;45.80;;;;;;4832575;29;20045;-78
2023/10/16 13:45:12;;;;;;;4.75;0.80;;;26.10;45.10;;;;;;4829040;29;20031;-79
2023/10/16 13:48:04;;;;;;;4.15;0.82;;;25.80;45.80;;;;;;4828574;29;20042;-79
2023/10/16 13:50:36;;;;;;;2.58;0.80;;;25.20;45.30;;;;;;4928564;29;20051;-79
2023/10/16 13:55:59;;;;;;;4.22;0.70;;;24.50;46.30;;;;;;4967080;23;20103;-78
2023/10/16 13:58:24;;;;;;;3.30;0.80;;;25.40;45.40;;;;;;4903426;29;20037;-78
2023/10/16 14:01:30;;;;;;;2.45;0.60;;;25.60;44.60;;;;;;4871999;29;20036;-79
2023/10/16 14:03:59;;;;;;;3.17;0.65;;;26.20;44.90;;;;;;4784818;29;20043;-80
2023/10/16 14:06:35;;;;;;;5.28;1.15;;;27.30;44.80;;;;;;4876145;29;20040;-79
2023/10/16 14:09:10;;;;;;;1.83;0.60;;;28.30;43.10;;;;;;4856546;29;20041;-77
2023/10/16 14:12:02;;;;;;;2.83;0.60;;;28.10;42.80;;;;;;4889127;29;20333;-79
2023/10/16 14:14:33;;;;;;;4.53;0.80;;;28.30;42.50;;;;;;4872140;29;20025;-78
2023/10/16 14:17:47;;;;;;;2.80;0.60;;;28.00;42.30;;;;;;4859899;29;20087;-79
2023/10/16 14:20:34;;;;;;;2.17;0.50;;;27.40;42.50;;;;;;4849599;29;20051;-79
2023/10/16 14:23:28;;;;;;;1.60;0.50;;;26.80;42.70;;;;;;4916060;29;20021;-78
2023/10/16 14:26:24;;;;;;;2.83;0.40;;;26.80;44.60;;;;;;4903364;29;20057;-80
2023/10/16 14:32:49;;;;;;;1.77;0.68;;;27.30;42.70;;;;;;4831717;29;20073;-79
2023/10/16 14:38:20;;;;;;;1.58;0.40;;;25.40;44.70;;;;;;4831145;29;20046;-78
2023/10/16 14:41:15;;;;;;;1.88;0.55;;;24.10;45.50;;;;;;4827884;29;20049;-79
2023/10/16 14:43:48;;;;;;;2.03;0.73;;;23.10;46.90;;;;;;4845546;29;20061;-77
2023/10/16 14:46:15;;;;;;;1.58;0.60;;;22.90;47.90;;;;;;4833856;29;20091;-77
2023/10/16 14:49:09;;;;;;;1.35;0.45;;;22.10;48.20;;;;;;4798957;30;20110;-79
2023/10/16 14:51:39;;;;;;;2.60;0.73;;;21.20;50.80;;;;;;4783722;30;20031;-80
2023/10/16 14:54:29;;;;;;;3.50;0.65;;;20.70;51.00;;;;;;4817206;29;20038;-77
2023/10/16 14:57:11;;;;;;;;;;;;;;;;;;;;;
2023/10/16 14:59:59;;;;;;;1.77;0.30;;;20.30;50.60;;;;;;4746588;30;20123;-79
2023/10/16 15:02:28;;;;;;;;;;;19.90;52.30;;;;;;4730839;30;20373;-78
2023/10/16 15:05:28;;;;;;;1.35;0.50;;;19.60;51.50;;;;;;4742817;30;19940;-77
2023/10/16 15:08:13;;;;;;;4.03;0.60;;;19.30;52.40;;;;;;4763324;30;20350;-78
2023/10/16 15:10:53;;;;;;;1.98;0.60;;;19.00;53.60;;;;;;4791786;30;20159;-78
2023/10/16 15:13:27;;;;;;;1.05;0.43;;;18.80;53.60;;;;;;4812182;29;20106;-79
2023/10/16 15:15:57;;;;;;;2.45;0.55;;;18.90;54.70;;;;;;4885782;29;20025;-79
2023/10/16 15:18:23;;;;;;;2.00;0.60;;;19.60;52.50;;;;;;4871453;29;20033;-78
2023/10/16 15:20:52;;;;;;;1.48;0.40;;;19.90;53.30;;;;;;4879665;29;20029;-76
2023/10/16 15:23:18;;;;;;;2.28;0.88;;;20.40;51.60;;;;;;4860516;29;20057;-78
2023/10/16 15:25:45;;;;;;;2.22;0.63;;;20.20;51.70;;;;;;4870326;29;20073;-80
2023/10/16 15:28:18;;;;;;;1.80;0.60;;;20.60;51.00;;;;;;4857900;29;20033;-78
2023/10/16 15:30:57;;;;;;;2.35;0.60;;;20.60;50.90;;;;;;4859700;29;20160;-79
2023/10/16 15:33:27;;;;;;;2.00;0.55;;;20.90;50.40;;;;;;4857747;29;20044;-78
2023/10/16 15:36:00;;;;;;;1.77;0.60;;;21.50;50.70;;;;;;4873895;29;20215;-78
2023/10/16 15:38:42;;;;;;;2.30;0.52;;;22.10;50.40;;;;;;4857635;29;20033;-78
2023/10/16 15:41:13;;;;;;;2.35;0.80;;;21.80;49.30;;;;;;4858593;29;20029;-76
2023/10/16 15:43:49;;;;;;;3.05;0.70;;;20.70;50.70;;;;;;4853368;29;20093;-78
2023/10/16 15:46:41;;;;;;;3.47;0.65;;;19.20;52.90;;;;;;4859163;29;20073;-78
2023/10/16 15:49:10;;;;;;;2.88;0.65;;;18.10;55.00;;;;;;4871600;29;20029;-77
2023/10/16 15:51:37;;;;;;;2.20;0.60;;;17.40;56.70;;;;;;4854906;29;20346;-77
2023/10/16 15:54:14;;;;;;;2.40;0.80;;;16.70;57.70;;;;;;4857914;29;20064;-77
2023/10/16 15:56:41;;;;;;;2.10;0.70;;;16.30;59.30;;;;;;4874575;29;20263;-77
2023/10/16 15:59:08;;;;;;;2.72;0.90;;;16.00;59.50;;;;;;4873934;29;20300;-77
2023/10/16 16:01:35;;;;;;;4.15;0.82;;;15.80;60.40;;;;;;4877225;29;20065;-77
2023/10/16 16:04:01;;;;;;;2.25;0.70;;;15.30;60.50;;;;;;4876578;29;20107;-77
2023/10/16 16:06:29;;;;;;;2.05;0.50;;;14.90;61.80;;;;;;4892243;29;20039;-77
2023/10/16 16:08:55;;;;;;;1.83;0.80;;;14.70;62.50;;;;;;4891715;29;20073;-76
2023/10/16 16:11:27;;;;;;;1.83;0.63;;;14.50;63.20;;;;;;4877554;29;20060;-76
2023/10/16 16:13:52;;;;;;;2.92;1.05;;;14.30;63.70;;;;;;4890533;29;20107;-77
2023/10/16 16:16:21;;;;;;;1.67;0.60;;;14.00;64.60;;;;;;4891999;29;20021;-75
2023/10/16 16:18:48;;;;;;;2.63;0.80;;;13.60;65.40;;;;;;4892179;29;20100;-77
2023/10/16 16:21:16;;;;;;;1.77;0.57;;;13.50;65.70;;;;;;4876759;29;20040;-78
2023/10/16 16:23:43;;;;;;;2.28;0.60;;;13.30;65.70;;;;;;4891332;29;20044;-77
2023/10/16 16:26:13;;;;;;;1.80;0.63;;;13.10;66.30;;;;;;4876180;29;20299;-75
2023/10/16 16:28:39;;;;;;;2.75;0.60;;;12.90;66.60;;;;;;4891945;29;20107;-76
2023/10/16 16:31:07;;;;;;;2.67;0.80;;;12.70;67.10;;;;;;4892110;29;20024;-77
2023/10/16 16:33:34;;;;;;;2.95;0.70;;;12.50;67.60;;;;;;4876738;29;20025;-76
2023/10/16 16:36:17;;;;;;;2.17;0.65;;;12.50;68.10;;;;;;4858585;29;20073;-78
2023/10/16 16:38:45;;;;;;;3.83;0.68;;;12.30;68.60;;;;;;4873406;29;20033;-76
2023/10/16 16:41:14;;;;;;;2.30;0.60;;;12.20;69.40;;;;;;4872781;29;20035;-75
2023/10/16 16:43:40;;;;;;;1.73;0.70;;;12.10;69.10;;;;;;4873246;29;20370;-77
2023/10/16 16:46:13;;;;;;;2.35;0.93;;;11.90;69.80;;;;;;4872137;29;20331;-77
2023/10/16 16:48:41;;;;;;;2.35;0.90;;;11.90;70.40;;;;;;4872681;29;20033;-76
2023/10/16 16:51:12;;;;;;;3.63;0.95;;;11.70;70.50;;;;;;4872709;29;20301;-77
2023/10/16 16:53:39;;;;;;;3.40;0.82;;;11.60;71.00;;;;;;4886276;29;20051;-76
2023/10/16 16:56:06;;;;;;;4.07;0.98;;;11.60;71.70;;;;;;4890406;29;20040;-77
2023/10/16 16:58:33;;;;;;;3.47;1.20;;;11.50;71.40;;;;;;4891554;29;20068;-76
2023/10/16 17:01:03;;;;;;;2.83;1.05;;;11.40;72.20;;;;;;4875388;29;20040;-77
2023/10/16 17:03:30;;;;;;;3.08;1.30;;;11.40;72.20;;;;;;4864439;29;20028;-81
2023/10/16 17:05:57;;;;;;;2.65;1.20;;;11.40;72.10;;;;;;4874250;29;20137;-77
2023/10/16 17:08:24;;;;;;;2.63;1.10;;;11.30;72.20;;;;;;4899163;29;20032;-75
2023/10/16 17:10:55;;;;;;;3.33;1.30;;;11.30;72.30;;;;;;4875245;29;20044;-78
2023/10/16 17:13:22;;;;;;;3.40;1.10;;;11.20;72.80;;;;;;4875782;29;20016;-76
2023/10/16 17:15:48;;;;;;;4.40;1.00;;;11.10;72.90;;;;;;4891310;29;20096;-76
2023/10/16 17:18:18;;;;;;;2.03;1.00;;;11.10;73.70;;;;;;4876609;29;20029;-76
2023/10/16 17:20:45;;;;;;;4.55;1.58;;;11.00;73.60;;;;;;4876021;29;20212;-76
2023/10/16 17:23:12;;;;;;;3.92;1.77;;;11.00;73.80;;;;;;4872394;29;20025;-77
2023/10/16 17:25:40;;;;;;;3.58;1.27;;;10.90;73.90;;;;;;4872900;29;20025;-76
2023/10/16 17:28:07;;;;;;;4.63;1.55;;;10.80;74.20;;;;;;4887877;29;20048;-78
2023/10/16 17:30:33;;;;;;;2.55;0.95;;;10.70;74.50;;;;;;4894631;29;20104;-78
2023/10/16 17:33:04;;;;;;;3.38;1.30;;;10.70;74.90;;;;;;4907676;29;20047;-78
2023/10/16 17:35:33;;;;;;;2.80;1.17;;;10.60;75.20;;;;;;4898587;29;20082;-76
2023/10/16 17:38:00;;;;;;;3.63;1.35;;;10.60;75.60;;;;;;4887420;29;20056;-77
2023/10/16 17:40:26;;;;;;;4.13;1.20;;;10.60;75.90;;;;;;4888186;29;20100;-77
2023/10/16 17:42:55;;;;;;;4.22;1.25;;;10.50;76.20;;;;;;4887624;29;20028;-77
2023/10/16 17:45:30;;;;;;;2.78;1.20;;;10.50;76.00;;;;;;4872018;29;20041;-77
2023/10/16 17:47:55;;;;;;;2.70;1.40;;;10.50;76.20;;;;;;4871497;29;20085;-77
2023/10/16 17:50:24;;;;;;;2.88;1.05;;;10.50;76.60;;;;;;4897538;29;20041;-76
2023/10/16 17:52:50;;;;;;;2.58;1.00;;;10.40;76.40;;;;;;4895396;29;20044;-76
2023/10/16 17:55:20;;;;;;;2.35;1.10;;;10.40;76.60;;;;;;4872020;29;20060;-77
2023/10/16 17:57:47;;;;;;;2.72;1.10;;;10.40;76.90;;;;;;4898626;29;20056;-77
2023/10/16 18:00:19;;;;;;;2.27;0.73;;;10.40;76.70;;;;;;4861676;29;20029;-76
2023/10/16 18:02:47;;;;;;;3.10;1.10;;;10.30;76.90;;;;;;4871633;29;20035;-76
2023/10/16 18:05:16;;;;;;;2.58;1.20;;;10.30;76.40;;;;;;4886774;29;20139;-75
2023/10/16 18:07:44;;;;;;;2.15;1.00;;;10.30;76.60;;;;;;4883875;29;20219;-77
2023/10/16 18:10:10;;;;;;;2.10;1.13;;;10.30;76.60;;;;;;4871411;29;20116;-74
2023/10/16 18:12:42;;;;;;;3.17;1.10;;;10.30;76.50;;;;;;4887015;29;20040;-77
2023/10/16 18:15:14;;;;;;;2.10;1.13;;;10.30;76.90;;;;;;4875560;29;20020;-76
2023/10/16 18:17:44;;;;;;;2.90;1.20;;;10.20;77.10;;;;;;4878732;29;20226;-76
2023/10/16 18:20:18;;;;;;;2.77;1.20;;;10.30;77.30;;;;;;4879377;29;20028;-79
2023/10/16 18:22:53;;;;;;;4.18;1.10;;;10.20;77.00;;;;;;4878964;29;20029;-79
2023/10/16 18:25:24;;;;;;;4.15;1.45;;;10.20;77.50;;;;;;4877024;29;20315;-78
2023/10/16 18:27:51;;;;;;;3.85;1.67;;;10.20;77.50;;;;;;4911918;29;20343;-77
2023/10/16 18:30:21;;;;;;;5.05;1.98;;;10.20;78.00;;;;;;4878499;29;20028;-78
2023/10/16 18:32:50;;;;;;;4.18;2.03;;;10.10;78.20;;;;;;4878525;29;20341;-76
2023/10/16 18:35:20;;;;;;;6.15;2.10;;;10.10;78.50;;;;;;4878163;29;20032;-77
2023/10/16 18:37:46;;;;;;;3.70;1.63;;;10.00;79.00;;;;;;4878774;29;20044;-78
2023/10/16 18:40:18;;;;;;;3.92;1.98;;;9.90;79.30;;;;;;4910501;29;20025;-77
2023/10/16 18:42:48;;;;;;;4.68;2.10;;;9.80;79.50;;;;;;4877121;29;20048;-77
2023/10/16 18:45:14;;;;;;;3.50;1.80;;;9.80;80.10;;;;;;4893198;29;20310;-78
2023/10/16 18:47:40;;;;;;;4.50;1.88;;;9.80;80.50;;;;;;4894185;29;20024;-76
2023/10/16 18:50:06;;;;;;;4.88;2.10;;;9.70;80.60;;;;;;4910009;29;20029;-76
2023/10/16 18:52:34;;;;;;;4.88;2.53;;;9.60;81.10;;;;;;4877963;29;20076;-77
2023/10/16 18:55:01;;;;;;;3.65;1.85;;;9.60;81.50;;;;;;4891338;29;20048;-76
2023/10/16 18:57:28;;;;;;;5.00;1.95;;;9.60;81.90;;;;;;4877525;29;20036;-77
2023/10/16 18:59:56;;;;;;;6.93;2.17;;;9.50;81.90;;;;;;4877058;29;20052;-77
2023/10/16 19:02:22;;;;;;;4.13;1.90;;;9.40;82.30;;;;;;4892183;29;20068;-77
2023/10/16 19:04:48;;;;;;;5.60;2.67;;;9.40;82.50;;;;;;4887239;29;20299;-78
2023/10/16 19:07:15;;;;;;;5.25;3.20;;;9.30;83.00;;;;;;4878301;29;20029;-77
2023/10/16 19:09:42;;;;;;;9.27;3.20;;;9.20;83.30;;;;;;4879354;29;20030;-78
2023/10/16 19:12:09;;;;;;;6.57;2.78;;;9.20;84.20;;;;;;4878915;29;20029;-76
2023/10/16 19:14:39;;;;;;;5.30;2.60;;;9.20;84.50;;;;;;4878964;29;20289;-78
2023/10/16 19:17:06;;;;;;;4.40;2.50;;;9.20;84.50;;;;;;4876905;29;20028;-77
2023/10/16 19:19:33;;;;;;;5.57;2.70;;;9.10;84.50;;;;;;4876303;29;20029;-77
2023/10/16 19:22:00;;;;;;;5.25;2.72;;;9.10;84.90;;;;;;4875475;29;20025;-77
2023/10/16 19:24:27;;;;;;;4.72;2.03;;;9.00;85.20;;;;;;4876394;29;20048;-77
2023/10/16 19:26:57;;;;;;;3.03;1.55;;;8.90;85.90;;;;;;4891004;29;20334;-78
2023/10/16 19:29:23;;;;;;;5.22;1.80;;;8.90;85.60;;;;;;4876013;29;20059;-77
2023/10/16 19:31:49;;;;;;;4.57;1.75;;;8.90;85.90;;;;;;4876071;29;20021;-78
2023/10/16 19:34:17;;;;;;;4.15;1.80;;;8.90;86.20;;;;;;4894348;29;20085;-78
2023/10/16 19:36:46;;;;;;;6.00;1.70;;;8.80;86.50;;;;;;4859991;29;20036;-77
2023/10/16 19:39:15;;;;;;;3.55;1.70;;;8.80;86.50;;;;;;4891085;29;20024;-78
2023/10/16 19:41:48;;;;;;;4.63;1.42;;;8.80;86.80;;;;;;4876127;29;20036;-77
2023/10/16 19:44:15;;;;;;;2.80;1.50;;;8.80;86.90;;;;;;4875822;29;20362;-77
2023/10/16 19:46:41;;;;;;;2.83;1.52;;;8.80;86.90;;;;;;4892609;29;20119;-78
2023/10/16 19:49:08;;;;;;;2.67;1.30;;;8.80;87.10;;;;;;4875487;29;20029;-77
2023/10/16 19:51:34;;;;;;;3.33;1.50;;;8.80;87.30;;;;;;4876602;29;20023;-79
2023/10/16 19:54:01;;;;;;;4.45;1.73;;;8.80;87.70;;;;;;4874998;29;20061;-78
2023/10/16 19:56:29;;;;;;;3.53;1.65;;;8.70;87.90;;;;;;4876067;29;20028;-77
2023/10/16 19:58:59;;;;;;;3.97;1.63;;;8.70;88.10;;;;;;4860978;29;20064;-78
2023/10/16 20:01:26;;;;;;;3.13;1.55;;;8.60;88.20;;;;;;4906546;29;20029;-77
2023/10/16 20:04:00;;;;;;;6.35;2.00;;;8.60;88.40;;;;;;4879214;29;20060;-78
2023/10/16 20:06:29;;;;;;;3.50;1.88;;;8.60;88.40;;;;;;4911889;29;20067;-77
2023/10/16 20:09:05;;;;;;;4.97;2.10;;;8.50;88.50;;;;;;4879650;29;20271;-78
2023/10/16 20:11:33;;;;;;;3.00;1.73;;;8.40;88.80;;;;;;4879580;29;20032;-76
2023/10/16 20:14:00;;;;;;;4.13;2.00;;;8.40;89.20;;;;;;4878778;29;20028;-77
2023/10/16 20:16:29;;;;;;;3.75;2.00;;;8.30;89.30;;;;;;4879309;29;20032;-77
2023/10/16 20:18:55;;;;;;;4.10;1.65;;;8.30;89.80;;;;;;4878964;29;20064;-77
2023/10/16 20:21:23;;;;;;;4.60;1.98;;;8.20;90.00;;;;;;4894046;29;20032;-78
2023/10/16 20:23:50;;;;;;;4.80;2.05;;;8.20;90.60;;;;;;4879367;29;20025;-78
2023/10/16 20:26:20;;;;;;;5.40;2.05;;;8.10;90.50;;;;;;4873967;29;20265;-77